createdAt,value
2018-07-05T00:01:33.212Z,16.10
2018-07-05T00:05:48.287Z,16.10
2018-07-05T00:10:03.372Z,16.00
2018-07-05T00:14:18.254Z,16.00
2018-07-05T00:18:33.352Z,15.90
2018-07-05T00:22:48.417Z,15.80
2018-07-05T00:27:03.483Z,15.80
2018-07-05T00:31:18.471Z,15.80
2018-07-05T00:35:33.421Z,15.80
2018-07-05T00:39:48.412Z,15.70
2018-07-05T00:44:03.626Z,15.70
2018-07-05T00:48:18.589Z,15.80
2018-07-05T00:52:33.554Z,15.70
2018-07-05T00:56:48.584Z,15.70
2018-07-05T01:01:03.801Z,15.50
2018-07-05T01:05:18.731Z,15.50
2018-07-05T01:09:33.856Z,15.40
2018-07-05T01:13:48.773Z,15.40
2018-07-05T01:18:03.990Z,15.40
2018-07-05T01:22:18.932Z,15.40
2018-07-05T01:26:34.081Z,15.30
2018-07-05T01:30:49.120Z,15.20
2018-07-05T01:35:04.114Z,15.20
2018-07-05T01:39:19.289Z,15.20
2018-07-05T01:43:34.220Z,15.30
2018-07-05T01:47:49.519Z,15.20
2018-07-05T01:52:04.746Z,15.20
2018-07-05T01:56:19.697Z,15.10
2018-07-05T02:00:34.870Z,15.10
2018-07-05T02:04:50.029Z,15.00
2018-07-05T02:09:05.453Z,15.00
2018-07-05T02:13:20.317Z,15.00
2018-07-05T02:17:35.188Z,15.00
2018-07-05T02:21:50.173Z,15.00
2018-07-05T02:26:05.192Z,15.00
2018-07-05T02:30:20.246Z,15.10
2018-07-05T02:34:35.321Z,15.20
2018-07-05T02:38:55.596Z,15.20
2018-07-05T02:43:10.697Z,15.10
2018-07-05T02:47:25.857Z,15.10
2018-07-05T02:51:41.039Z,15.10
2018-07-05T02:55:55.941Z,15.10
2018-07-05T03:00:11.033Z,15.20
2018-07-05T03:04:26.084Z,15.30
2018-07-05T03:08:41.064Z,15.20
2018-07-05T03:12:56.291Z,15.10
2018-07-05T03:17:11.212Z,15.10
2018-07-05T03:21:26.217Z,15.00
2018-07-05T03:25:41.488Z,14.90
2018-07-05T03:29:56.562Z,14.90
2018-07-05T03:34:11.640Z,14.90
2018-07-05T03:38:26.655Z,14.80
2018-07-05T03:42:42.751Z,14.80
2018-07-05T03:46:57.951Z,14.80
2018-07-05T03:51:12.814Z,14.80
2018-07-05T03:55:27.901Z,14.90
2018-07-05T03:59:42.977Z,14.80
2018-07-05T04:03:58.063Z,14.80
2018-07-05T04:08:13.082Z,14.90
2018-07-05T04:12:28.098Z,14.90
2018-07-05T04:16:43.144Z,14.90
2018-07-05T04:20:58.081Z,15.00
2018-07-05T04:25:13.149Z,15.10
2018-07-05T04:29:28.165Z,15.20
2018-07-05T04:33:43.336Z,15.30
2018-07-05T04:37:58.285Z,15.50
2018-07-05T04:42:13.412Z,15.80
2018-07-05T04:46:28.464Z,15.80
2018-07-05T04:50:43.542Z,15.80
2018-07-05T04:54:58.441Z,15.90
2018-07-05T04:59:13.409Z,16.00
2018-07-05T05:03:28.444Z,16.20
2018-07-05T05:07:42.754Z,16.30
2018-07-05T05:11:57.915Z,16.40
2018-07-05T05:16:12.804Z,16.50
2018-07-05T05:20:28.006Z,16.60
2018-07-05T05:24:43.425Z,16.80
2018-07-05T05:28:58.524Z,16.90
2018-07-05T05:33:13.766Z,17.30
2018-07-05T05:37:28.949Z,17.50
2018-07-05T05:41:44.017Z,17.60
2018-07-05T05:45:59.079Z,17.70
2018-07-05T05:50:14.434Z,17.80
2018-07-05T05:54:29.674Z,18.20
2018-07-05T05:58:44.624Z,18.40
2018-07-05T06:02:59.599Z,18.60
2018-07-05T06:07:14.719Z,18.80
2018-07-05T06:11:29.773Z,19.00
2018-07-05T06:15:46.050Z,19.30
2018-07-05T06:20:02.029Z,19.40
2018-07-05T06:24:17.154Z,19.60
2018-07-05T06:28:32.209Z,19.80
2018-07-05T06:32:47.229Z,20.00
2018-07-05T06:37:02.515Z,20.10
2018-07-05T06:41:17.634Z,20.20
2018-07-05T06:45:32.600Z,20.40
2018-07-05T06:49:47.658Z,20.60
2018-07-05T06:54:02.733Z,20.90
2018-07-05T06:58:17.872Z,21.10
2018-07-05T07:02:32.887Z,21.30
2018-07-05T07:06:48.151Z,21.50
2018-07-05T07:11:03.372Z,21.60
2018-07-05T07:15:18.283Z,21.80
2018-07-05T07:19:33.321Z,22.00
2018-07-05T07:23:48.198Z,22.20
2018-07-05T07:28:03.270Z,22.20
2018-07-05T07:32:18.375Z,22.60
2018-07-05T07:36:33.237Z,22.70
2018-07-05T07:40:48.440Z,22.90
2018-07-05T07:44:51.133Z,23.10
2018-07-05T07:48:53.814Z,23.20
2018-07-05T07:52:56.573Z,23.30
2018-07-05T07:56:59.280Z,23.60
2018-07-05T08:01:01.957Z,23.80
2018-07-05T08:05:05.098Z,24.10
2018-07-05T08:09:08.284Z,24.30
2018-07-05T08:13:11.173Z,24.60
2018-07-05T08:17:14.031Z,24.90
2018-07-05T08:21:16.723Z,25.00
2018-07-05T08:25:19.543Z,25.40
2018-07-05T08:29:22.246Z,25.60
2018-07-05T08:33:24.957Z,25.70
2018-07-05T08:37:27.729Z,25.80
2018-07-05T08:41:30.476Z,25.90
2018-07-05T08:45:33.325Z,26.00
2018-07-05T08:49:36.178Z,26.30
2018-07-05T08:53:38.886Z,26.70
2018-07-05T08:57:41.574Z,27.20
2018-07-05T09:01:44.467Z,27.50
2018-07-05T09:05:47.178Z,28.10
2018-07-05T09:09:49.897Z,28.60
2018-07-05T09:13:52.702Z,29.30
2018-07-05T09:17:55.682Z,30.20
2018-07-05T09:21:58.178Z,29.70
2018-07-05T09:26:00.883Z,29.40
2018-07-05T09:30:03.573Z,29.70
2018-07-05T09:34:06.417Z,29.40
2018-07-05T09:38:09.134Z,30.10
2018-07-05T09:42:11.883Z,30.40
2018-07-05T09:46:14.585Z,30.60
2018-07-05T09:50:17.309Z,30.20
2018-07-05T09:54:20.072Z,30.20
2018-07-05T09:58:22.831Z,29.90
2018-07-05T10:02:25.732Z,29.90
2018-07-05T10:06:28.410Z,29.70
2018-07-05T10:10:31.104Z,30.00
2018-07-05T10:14:33.898Z,30.50
2018-07-05T10:18:36.588Z,31.20
2018-07-05T10:22:39.295Z,31.00
2018-07-05T10:26:42.080Z,30.80
2018-07-05T10:30:56.990Z,31.50
2018-07-05T10:34:59.695Z,32.30
2018-07-05T10:39:02.425Z,32.00
2018-07-05T10:43:17.991Z,32.90
2018-07-05T10:47:33.043Z,32.70
2018-07-05T10:51:48.009Z,32.70
2018-07-05T10:56:03.097Z,32.70
2018-07-05T11:00:18.016Z,33.20
2018-07-05T11:04:33.245Z,32.60
2018-07-05T11:08:48.297Z,32.10
2018-07-05T11:13:03.488Z,33.10
2018-07-05T11:17:18.610Z,34.00
2018-07-05T11:21:33.635Z,34.30
2018-07-05T11:25:48.670Z,35.10
2018-07-05T11:30:03.761Z,34.00
2018-07-05T11:34:18.899Z,32.80
2018-07-05T11:38:33.902Z,33.60
2018-07-05T11:42:48.935Z,35.20
2018-07-05T11:47:03.958Z,36.30
2018-07-05T11:51:18.973Z,34.90
2018-07-05T11:55:34.080Z,34.90
2018-07-05T11:59:49.056Z,35.30
2018-07-05T12:04:04.156Z,35.00
2018-07-05T12:08:19.131Z,34.60
2018-07-05T12:12:34.196Z,35.80
2018-07-05T12:16:49.269Z,35.40
2018-07-05T12:21:04.218Z,35.80
2018-07-05T12:25:19.084Z,37.00
2018-07-05T12:29:34.229Z,37.20
2018-07-05T12:33:49.279Z,38.30
2018-07-05T12:38:04.486Z,39.30
2018-07-05T12:42:19.605Z,37.70
2018-07-05T12:46:34.577Z,37.00
2018-07-05T12:50:49.646Z,37.30
2018-07-05T12:55:04.752Z,38.40
2018-07-05T12:59:19.827Z,39.00
2018-07-05T13:03:34.961Z,38.30
2018-07-05T13:07:50.077Z,38.80
2018-07-05T13:12:05.309Z,38.40
2018-07-05T13:16:20.348Z,39.40
2018-07-05T13:20:36.000Z,39.50
2018-07-05T13:24:50.932Z,39.10
2018-07-05T13:29:06.431Z,39.90
2018-07-05T13:33:21.702Z,38.50
2018-07-05T13:37:37.105Z,36.90
2018-07-05T13:41:52.311Z,37.10
2018-07-05T13:46:07.725Z,37.00
2018-07-05T13:50:22.969Z,36.60
2018-07-05T13:54:38.147Z,37.90
2018-07-05T13:58:53.489Z,38.40
2018-07-05T14:03:08.572Z,38.60
2018-07-05T14:07:23.937Z,38.50
2018-07-05T14:11:39.192Z,37.00
2018-07-05T14:15:54.292Z,35.00
2018-07-05T14:20:09.615Z,33.60
2018-07-05T14:24:25.029Z,32.20
2018-07-05T14:28:40.197Z,30.80
2018-07-05T14:32:55.453Z,30.30
2018-07-05T14:37:10.783Z,29.80
2018-07-05T14:41:25.891Z,29.30
2018-07-05T14:45:41.301Z,29.00
2018-07-05T14:49:56.604Z,28.40
2018-07-05T14:54:11.551Z,28.00
2018-07-05T14:58:26.678Z,27.80
2018-07-05T15:02:41.904Z,27.30
2018-07-05T15:06:56.957Z,27.10
2018-07-05T15:11:12.101Z,27.00
2018-07-05T15:15:28.660Z,26.50
2018-07-05T15:19:43.948Z,26.50
2018-07-05T15:23:59.065Z,26.00
2018-07-05T15:28:14.394Z,26.00
2018-07-05T15:32:29.602Z,26.00
2018-07-05T15:36:44.707Z,25.60
2018-07-05T15:41:00.019Z,25.10
2018-07-05T15:45:14.940Z,24.60
2018-07-05T15:49:29.908Z,24.00
2018-07-05T15:53:45.048Z,23.70
2018-07-05T15:57:59.976Z,23.20
2018-07-05T16:02:15.218Z,22.70
2018-07-05T16:06:30.196Z,22.10
2018-07-05T16:10:45.273Z,21.50
2018-07-05T16:15:00.468Z,21.10
2018-07-05T16:19:16.905Z,21.00
2018-07-05T16:23:32.297Z,21.00
2018-07-05T16:27:47.769Z,20.90
2018-07-05T16:32:04.105Z,20.80
2018-07-05T16:36:19.343Z,20.50
2018-07-05T16:40:34.439Z,20.30
2018-07-05T16:44:49.817Z,20.10
2018-07-05T16:49:05.454Z,19.80
2018-07-05T16:53:20.732Z,19.50
2018-07-05T16:57:36.127Z,19.10
2018-07-05T17:01:51.212Z,18.80
2018-07-05T17:06:06.393Z,18.60
2018-07-05T17:10:21.711Z,18.50
2018-07-05T17:14:37.070Z,18.40
2018-07-05T17:18:52.464Z,18.00
2018-07-05T17:23:08.180Z,17.80
2018-07-05T17:27:24.890Z,17.80
2018-07-05T17:31:40.182Z,17.60
2018-07-05T17:35:55.319Z,17.60
2018-07-05T17:40:10.218Z,17.70
2018-07-05T17:44:25.752Z,17.60
2018-07-05T17:48:40.824Z,17.70
2018-07-05T17:52:57.703Z,17.80
2018-07-05T17:57:12.770Z,17.70
2018-07-05T18:01:27.844Z,17.70
2018-07-05T18:05:42.956Z,17.60
2018-07-05T18:09:58.097Z,17.60
2018-07-05T18:14:13.261Z,17.40
2018-07-05T18:18:28.249Z,17.50
2018-07-05T18:22:43.281Z,17.50
2018-07-05T18:26:58.394Z,17.70
2018-07-05T18:31:16.577Z,17.70
2018-07-05T18:35:31.665Z,17.50
2018-07-05T18:44:08.310Z,17.40
2018-07-05T18:48:23.257Z,17.60
2018-07-05T18:52:38.493Z,17.70
2018-07-05T18:56:53.661Z,17.60
2018-07-05T19:01:08.793Z,17.60
2018-07-05T19:05:24.169Z,17.50
2018-07-05T19:09:39.387Z,17.30
2018-07-05T19:13:56.126Z,17.30
2018-07-05T19:18:11.002Z,17.30
2018-07-05T19:22:26.184Z,17.20
2018-07-05T19:26:41.272Z,17.30
2018-07-05T19:30:56.368Z,17.30
2018-07-05T19:35:11.577Z,17.30
2018-07-05T19:39:27.394Z,17.40
2018-07-05T19:43:45.291Z,17.40
2018-07-05T19:48:02.099Z,17.40
2018-07-05T19:52:18.803Z,17.30
2018-07-05T19:56:34.828Z,17.20
2018-07-05T20:00:50.261Z,17.30
2018-07-05T20:05:07.399Z,17.50
2018-07-05T20:09:22.770Z,17.50
2018-07-05T20:13:38.254Z,17.50
2018-07-05T20:17:53.574Z,17.50
2018-07-05T20:22:13.258Z,17.50
2018-07-05T20:26:29.864Z,17.30
2018-07-05T20:30:45.114Z,17.40
2018-07-05T20:35:00.709Z,17.30
2018-07-05T20:39:15.941Z,17.10
2018-07-05T20:43:31.101Z,17.10
2018-07-05T20:47:46.170Z,17.10
2018-07-05T20:52:01.396Z,17.10
2018-07-05T20:56:16.551Z,17.10
2018-07-05T21:00:31.769Z,17.00
2018-07-05T21:04:46.835Z,17.20
2018-07-05T21:09:13.060Z,17.30
2018-07-05T21:13:28.117Z,17.30
2018-07-05T21:17:43.098Z,17.20
2018-07-05T21:21:58.263Z,17.20
2018-07-05T21:26:13.146Z,17.00
2018-07-05T21:30:28.307Z,17.10
2018-07-05T21:34:43.285Z,17.20
2018-07-05T21:38:58.412Z,17.20
2018-07-05T21:43:13.336Z,17.20
2018-07-05T21:47:28.532Z,17.20
2018-07-05T21:51:43.644Z,17.20
2018-07-05T21:55:58.901Z,17.10
2018-07-05T22:00:13.782Z,17.10
2018-07-05T22:04:28.852Z,17.10
2018-07-05T22:08:44.135Z,17.20
2018-07-05T22:12:59.317Z,17.10
2018-07-05T22:17:19.454Z,17.10
2018-07-05T22:21:38.685Z,17.10
2018-07-05T22:25:59.058Z,17.10
2018-07-05T22:30:19.213Z,17.10
2018-07-05T22:34:34.446Z,16.80
2018-07-05T22:38:49.647Z,16.80
2018-07-05T22:43:04.759Z,16.80
2018-07-05T22:47:19.831Z,16.70
2018-07-05T22:51:34.913Z,16.60
2018-07-05T22:55:49.895Z,16.50
2018-07-05T23:00:05.095Z,16.50
2018-07-05T23:04:20.139Z,16.60
2018-07-05T23:08:35.323Z,16.50
2018-07-05T23:12:50.636Z,16.50
2018-07-05T23:17:05.549Z,16.40
2018-07-05T23:21:20.617Z,16.30
2018-07-05T23:25:35.540Z,16.30
2018-07-05T23:29:50.680Z,16.20
2018-07-05T23:34:05.860Z,16.30
2018-07-05T23:38:20.892Z,16.30
2018-07-05T23:42:35.890Z,16.30
2018-07-05T23:46:50.917Z,16.40
2018-07-05T23:51:05.967Z,16.40
2018-07-05T23:55:21.114Z,16.30
2018-07-05T23:59:36.126Z,16.40
